sensor_id;sensor_type;location;lat;lon;timestamp;temperature;humidity
24011;DHT22;12217;50.792;4.372;2022-07-21T00:00:20;20.20;99.90
24011;DHT22;12217;50.792;4.372;2022-07-21T00:02:47;20.10;99.90
24011;DHT22;12217;50.792;4.372;2022-07-21T00:05:12;20.00;99.90
24011;DHT22;12217;50.792;4.372;2022-07-21T00:07:38;20.00;99.90
24011;DHT22;12217;50.792;4.372;2022-07-21T00:10:04;20.10;99.90
24011;DHT22;12217;50.792;4.372;2022-07-21T00:12:30;20.00;99.90
24011;DHT22;12217;50.792;4.372;2022-07-21T00:14:56;20.10;99.90
24011;DHT22;12217;50.792;4.372;2022-07-21T00:17:21;20.00;99.90
24011;DHT22;12217;50.792;4.372;2022-07-21T00:19:47;19.90;99.90
24011;DHT22;12217;50.792;4.372;2022-07-21T00:22:13;19.70;99.90
24011;DHT22;12217;50.792;4.372;2022-07-21T00:24:38;19.80;99.90
24011;DHT22;12217;50.792;4.372;2022-07-21T00:27:04;19.90;99.90
24011;DHT22;12217;50.792;4.372;2022-07-21T00:29:29;19.80;99.90
24011;DHT22;12217;50.792;4.372;2022-07-21T00:31:55;19.90;99.90
24011;DHT22;12217;50.792;4.372;2022-07-21T00:34:21;19.80;99.90
24011;DHT22;12217;50.792;4.372;2022-07-21T00:36:46;19.80;99.90
24011;DHT22;12217;50.792;4.372;2022-07-21T00:39:12;19.90;99.90
24011;DHT22;12217;50.792;4.372;2022-07-21T00:41:38;19.80;99.90
24011;DHT22;12217;50.792;4.372;2022-07-21T00:44:04;19.80;99.90
24011;DHT22;12217;50.792;4.372;2022-07-21T00:46:30;19.80;99.90
24011;DHT22;12217;50.792;4.372;2022-07-21T00:48:56;19.90;99.90
24011;DHT22;12217;50.792;4.372;2022-07-21T00:51:21;19.80;99.90
24011;DHT22;12217;50.792;4.372;2022-07-21T00:53:47;19.70;99.90
24011;DHT22;12217;50.792;4.372;2022-07-21T00:56:13;19.50;99.90
24011;DHT22;12217;50.792;4.372;2022-07-21T00:58:40;19.60;99.90
24011;DHT22;12217;50.792;4.372;2022-07-21T01:01:06;19.60;99.90
24011;DHT22;12217;50.792;4.372;2022-07-21T01:03:31;19.70;99.90
24011;DHT22;12217;50.792;4.372;2022-07-21T01:05:58;19.80;99.90
24011;DHT22;12217;50.792;4.372;2022-07-21T01:08:24;19.80;99.90
24011;DHT22;12217;50.792;4.372;2022-07-21T01:10:52;19.80;99.90
24011;DHT22;12217;50.792;4.372;2022-07-21T01:13:18;19.70;99.90
24011;DHT22;12217;50.792;4.372;2022-07-21T01:15:44;19.70;99.90
24011;DHT22;12217;50.792;4.372;2022-07-21T01:18:09;19.70;99.90
24011;DHT22;12217;50.792;4.372;2022-07-21T01:20:35;19.70;99.90
24011;DHT22;12217;50.792;4.372;2022-07-21T01:23:02;19.70;99.90
24011;DHT22;12217;50.792;4.372;2022-07-21T01:25:27;19.70;99.90
24011;DHT22;12217;50.792;4.372;2022-07-21T01:27:53;19.80;99.90
24011;DHT22;12217;50.792;4.372;2022-07-21T01:30:19;19.90;99.90
24011;DHT22;12217;50.792;4.372;2022-07-21T01:32:45;19.80;99.90
24011;DHT22;12217;50.792;4.372;2022-07-21T01:35:13;19.70;99.90
24011;DHT22;12217;50.792;4.372;2022-07-21T01:37:42;19.70;99.90
24011;DHT22;12217;50.792;4.372;2022-07-21T01:40:08;19.70;99.90
24011;DHT22;12217;50.792;4.372;2022-07-21T01:42:52;19.70;99.90
24011;DHT22;12217;50.792;4.372;2022-07-21T01:45:21;19.60;99.90
24011;DHT22;12217;50.792;4.372;2022-07-21T01:47:47;19.60;99.90
24011;DHT22;12217;50.792;4.372;2022-07-21T01:50:13;19.30;99.90
24011;DHT22;12217;50.792;4.372;2022-07-21T01:52:38;19.20;99.90
24011;DHT22;12217;50.792;4.372;2022-07-21T01:55:04;19.20;99.90
24011;DHT22;12217;50.792;4.372;2022-07-21T01:57:30;19.10;99.90
24011;DHT22;12217;50.792;4.372;2022-07-21T01:59:56;19.20;99.90
24011;DHT22;12217;50.792;4.372;2022-07-21T02:02:21;19.00;99.90
24011;DHT22;12217;50.792;4.372;2022-07-21T02:04:48;19.20;99.90
24011;DHT22;12217;50.792;4.372;2022-07-21T02:07:14;19.10;99.90
24011;DHT22;12217;50.792;4.372;2022-07-21T02:09:40;19.00;99.90
24011;DHT22;12217;50.792;4.372;2022-07-21T02:12:06;19.00;99.90
24011;DHT22;12217;50.792;4.372;2022-07-21T02:14:32;18.90;99.90
24011;DHT22;12217;50.792;4.372;2022-07-21T02:16:57;19.00;99.90
24011;DHT22;12217;50.792;4.372;2022-07-21T02:19:23;19.00;99.90
24011;DHT22;12217;50.792;4.372;2022-07-21T02:21:49;19.00;99.90
24011;DHT22;12217;50.792;4.372;2022-07-21T02:24:14;19.00;99.90
24011;DHT22;12217;50.792;4.372;2022-07-21T02:26:40;19.00;99.90
24011;DHT22;12217;50.792;4.372;2022-07-21T02:29:06;19.10;99.90
24011;DHT22;12217;50.792;4.372;2022-07-21T02:31:33;19.20;99.90
24011;DHT22;12217;50.792;4.372;2022-07-21T02:33:59;19.10;99.90
24011;DHT22;12217;50.792;4.372;2022-07-21T02:36:24;19.10;99.90
24011;DHT22;12217;50.792;4.372;2022-07-21T02:38:50;19.20;99.90
24011;DHT22;12217;50.792;4.372;2022-07-21T02:41:16;19.20;99.90
24011;DHT22;12217;50.792;4.372;2022-07-21T02:43:42;19.20;99.90
24011;DHT22;12217;50.792;4.372;2022-07-21T02:46:07;19.10;99.90
24011;DHT22;12217;50.792;4.372;2022-07-21T02:48:33;19.20;99.90
24011;DHT22;12217;50.792;4.372;2022-07-21T02:50:59;19.30;99.90
24011;DHT22;12217;50.792;4.372;2022-07-21T02:53:24;19.30;99.90
24011;DHT22;12217;50.792;4.372;2022-07-21T02:55:51;19.40;99.90
24011;DHT22;12217;50.792;4.372;2022-07-21T02:58:25;19.50;99.90
24011;DHT22;12217;50.792;4.372;2022-07-21T03:00:56;19.30;99.90
24011;DHT22;12217;50.792;4.372;2022-07-21T03:03:27;19.20;99.90
24011;DHT22;12217;50.792;4.372;2022-07-21T03:05:54;19.20;99.90
24011;DHT22;12217;50.792;4.372;2022-07-21T03:08:20;19.30;99.90
24011;DHT22;12217;50.792;4.372;2022-07-21T03:10:45;19.30;99.90
24011;DHT22;12217;50.792;4.372;2022-07-21T03:13:12;19.40;99.90
24011;DHT22;12217;50.792;4.372;2022-07-21T03:15:38;19.50;99.90
24011;DHT22;12217;50.792;4.372;2022-07-21T03:18:04;19.60;99.90
24011;DHT22;12217;50.792;4.372;2022-07-21T03:20:33;19.60;99.90
24011;DHT22;12217;50.792;4.372;2022-07-21T03:23:00;19.60;99.90
24011;DHT22;12217;50.792;4.372;2022-07-21T03:25:26;19.40;99.90
24011;DHT22;12217;50.792;4.372;2022-07-21T03:27:51;19.40;99.90
24011;DHT22;12217;50.792;4.372;2022-07-21T03:30:17;19.30;99.90
24011;DHT22;12217;50.792;4.372;2022-07-21T03:32:43;19.20;99.90
24011;DHT22;12217;50.792;4.372;2022-07-21T03:35:11;19.20;99.90
24011;DHT22;12217;50.792;4.372;2022-07-21T03:37:48;19.20;99.90
24011;DHT22;12217;50.792;4.372;2022-07-21T03:40:17;19.10;99.90
24011;DHT22;12217;50.792;4.372;2022-07-21T03:42:42;19.10;99.90
24011;DHT22;12217;50.792;4.372;2022-07-21T03:45:09;18.90;99.90
24011;DHT22;12217;50.792;4.372;2022-07-21T03:47:35;18.90;99.90
24011;DHT22;12217;50.792;4.372;2022-07-21T03:50:02;18.90;99.90
24011;DHT22;12217;50.792;4.372;2022-07-21T03:52:28;18.90;99.90
24011;DHT22;12217;50.792;4.372;2022-07-21T03:54:53;19.00;99.90
24011;DHT22;12217;50.792;4.372;2022-07-21T03:57:38;19.00;99.90
24011;DHT22;12217;50.792;4.372;2022-07-21T04:00:10;19.00;99.90
24011;DHT22;12217;50.792;4.372;2022-07-21T04:02:36;19.10;99.90
24011;DHT22;12217;50.792;4.372;2022-07-21T04:05:03;18.90;99.90
24011;DHT22;12217;50.792;4.372;2022-07-21T04:07:28;18.80;99.90
24011;DHT22;12217;50.792;4.372;2022-07-21T04:09:54;18.90;99.90
24011;DHT22;12217;50.792;4.372;2022-07-21T04:12:20;18.90;99.90
24011;DHT22;12217;50.792;4.372;2022-07-21T04:14:49;19.00;99.90
24011;DHT22;12217;50.792;4.372;2022-07-21T04:17:15;18.90;99.90
24011;DHT22;12217;50.792;4.372;2022-07-21T04:19:40;18.70;99.90
24011;DHT22;12217;50.792;4.372;2022-07-21T04:22:06;18.70;99.90
24011;DHT22;12217;50.792;4.372;2022-07-21T04:24:31;18.80;99.90
24011;DHT22;12217;50.792;4.372;2022-07-21T04:26:57;18.90;99.90
24011;DHT22;12217;50.792;4.372;2022-07-21T04:29:23;19.10;99.90
24011;DHT22;12217;50.792;4.372;2022-07-21T04:31:48;19.00;99.90
24011;DHT22;12217;50.792;4.372;2022-07-21T04:34:14;19.20;99.90
24011;DHT22;12217;50.792;4.372;2022-07-21T04:36:39;19.00;99.90
24011;DHT22;12217;50.792;4.372;2022-07-21T04:39:05;18.90;99.90
24011;DHT22;12217;50.792;4.372;2022-07-21T04:41:31;18.80;99.90
24011;DHT22;12217;50.792;4.372;2022-07-21T04:43:57;18.90;99.90
24011;DHT22;12217;50.792;4.372;2022-07-21T04:46:25;18.90;99.90
24011;DHT22;12217;50.792;4.372;2022-07-21T04:48:51;19.00;99.90
24011;DHT22;12217;50.792;4.372;2022-07-21T04:51:17;19.10;99.90
24011;DHT22;12217;50.792;4.372;2022-07-21T04:53:42;19.20;99.90
24011;DHT22;12217;50.792;4.372;2022-07-21T04:56:08;19.20;99.90
24011;DHT22;12217;50.792;4.372;2022-07-21T04:58:33;19.30;99.90
24011;DHT22;12217;50.792;4.372;2022-07-21T05:00:59;19.30;99.90
24011;DHT22;12217;50.792;4.372;2022-07-21T05:03:25;19.00;99.90
24011;DHT22;12217;50.792;4.372;2022-07-21T05:05:50;19.00;99.90
24011;DHT22;12217;50.792;4.372;2022-07-21T05:08:16;19.00;99.90
24011;DHT22;12217;50.792;4.372;2022-07-21T05:10:42;18.90;99.90
24011;DHT22;12217;50.792;4.372;2022-07-21T05:13:07;18.80;99.90
24011;DHT22;12217;50.792;4.372;2022-07-21T05:15:33;18.70;99.90
24011;DHT22;12217;50.792;4.372;2022-07-21T05:17:58;18.80;99.90
24011;DHT22;12217;50.792;4.372;2022-07-21T05:20:24;18.90;99.90
24011;DHT22;12217;50.792;4.372;2022-07-21T05:22:50;18.90;99.90
24011;DHT22;12217;50.792;4.372;2022-07-21T05:25:15;18.80;99.90
24011;DHT22;12217;50.792;4.372;2022-07-21T05:27:41;18.80;99.90
24011;DHT22;12217;50.792;4.372;2022-07-21T05:30:07;18.80;99.90
24011;DHT22;12217;50.792;4.372;2022-07-21T05:32:33;18.90;99.90
24011;DHT22;12217;50.792;4.372;2022-07-21T05:34:59;18.80;99.90
24011;DHT22;12217;50.792;4.372;2022-07-21T05:37:24;19.00;99.90
24011;DHT22;12217;50.792;4.372;2022-07-21T05:39:51;19.00;99.90
24011;DHT22;12217;50.792;4.372;2022-07-21T05:42:16;18.90;99.90
24011;DHT22;12217;50.792;4.372;2022-07-21T05:44:43;18.90;99.90
24011;DHT22;12217;50.792;4.372;2022-07-21T05:47:08;19.00;99.90
24011;DHT22;12217;50.792;4.372;2022-07-21T05:49:34;19.00;99.90
24011;DHT22;12217;50.792;4.372;2022-07-21T05:51:59;18.90;99.90
24011;DHT22;12217;50.792;4.372;2022-07-21T05:54:25;18.70;99.90
24011;DHT22;12217;50.792;4.372;2022-07-21T05:56:51;18.60;99.90
24011;DHT22;12217;50.792;4.372;2022-07-21T05:59:18;18.70;99.90
24011;DHT22;12217;50.792;4.372;2022-07-21T06:01:43;18.80;99.90
24011;DHT22;12217;50.792;4.372;2022-07-21T06:04:09;18.70;99.90
24011;DHT22;12217;50.792;4.372;2022-07-21T06:06:34;18.70;99.90
24011;DHT22;12217;50.792;4.372;2022-07-21T06:09:00;18.70;99.90
24011;DHT22;12217;50.792;4.372;2022-07-21T06:11:26;18.60;99.90
24011;DHT22;12217;50.792;4.372;2022-07-21T06:13:53;18.70;99.90
24011;DHT22;12217;50.792;4.372;2022-07-21T06:16:18;18.50;99.90
24011;DHT22;12217;50.792;4.372;2022-07-21T06:18:44;18.60;99.90
24011;DHT22;12217;50.792;4.372;2022-07-21T06:21:09;18.50;99.90
24011;DHT22;12217;50.792;4.372;2022-07-21T06:23:35;18.50;99.90
24011;DHT22;12217;50.792;4.372;2022-07-21T06:26:01;18.40;99.90
24011;DHT22;12217;50.792;4.372;2022-07-21T06:28:27;18.60;99.90
24011;DHT22;12217;50.792;4.372;2022-07-21T06:30:52;18.40;99.90
24011;DHT22;12217;50.792;4.372;2022-07-21T06:33:18;18.40;99.90
24011;DHT22;12217;50.792;4.372;2022-07-21T06:35:44;18.50;99.90
24011;DHT22;12217;50.792;4.372;2022-07-21T06:38:09;18.50;99.90
24011;DHT22;12217;50.792;4.372;2022-07-21T06:40:35;18.50;99.90
24011;DHT22;12217;50.792;4.372;2022-07-21T06:43:01;18.60;99.90
24011;DHT22;12217;50.792;4.372;2022-07-21T06:45:27;18.60;99.90
24011;DHT22;12217;50.792;4.372;2022-07-21T06:48:06;18.60;99.90
24011;DHT22;12217;50.792;4.372;2022-07-21T06:50:32;18.50;99.90
24011;DHT22;12217;50.792;4.372;2022-07-21T06:52:58;18.50;99.90
24011;DHT22;12217;50.792;4.372;2022-07-21T06:55:24;18.60;99.90
24011;DHT22;12217;50.792;4.372;2022-07-21T06:57:50;18.50;99.90
24011;DHT22;12217;50.792;4.372;2022-07-21T07:00:16;18.50;99.90
24011;DHT22;12217;50.792;4.372;2022-07-21T07:02:42;18.60;99.90
24011;DHT22;12217;50.792;4.372;2022-07-21T07:05:08;18.70;99.90
24011;DHT22;12217;50.792;4.372;2022-07-21T07:07:34;18.50;99.90
24011;DHT22;12217;50.792;4.372;2022-07-21T07:10:00;18.60;99.90
24011;DHT22;12217;50.792;4.372;2022-07-21T07:12:28;18.60;99.90
24011;DHT22;12217;50.792;4.372;2022-07-21T07:14:53;18.60;99.90
24011;DHT22;12217;50.792;4.372;2022-07-21T07:17:19;18.80;99.90
24011;DHT22;12217;50.792;4.372;2022-07-21T07:19:48;18.90;99.90
24011;DHT22;12217;50.792;4.372;2022-07-21T07:22:14;18.90;99.90
24011;DHT22;12217;50.792;4.372;2022-07-21T07:24:39;18.90;99.90
24011;DHT22;12217;50.792;4.372;2022-07-21T07:27:05;18.90;99.90
24011;DHT22;12217;50.792;4.372;2022-07-21T07:29:31;18.80;99.90
24011;DHT22;12217;50.792;4.372;2022-07-21T07:31:57;18.70;99.90
24011;DHT22;12217;50.792;4.372;2022-07-21T07:34:23;18.80;99.90
24011;DHT22;12217;50.792;4.372;2022-07-21T07:36:49;18.70;99.90
24011;DHT22;12217;50.792;4.372;2022-07-21T07:39:15;18.70;99.90
24011;DHT22;12217;50.792;4.372;2022-07-21T07:41:41;18.80;99.90
24011;DHT22;12217;50.792;4.372;2022-07-21T07:44:07;18.90;99.90
24011;DHT22;12217;50.792;4.372;2022-07-21T07:46:33;19.00;99.90
24011;DHT22;12217;50.792;4.372;2022-07-21T07:48:59;19.00;99.90
24011;DHT22;12217;50.792;4.372;2022-07-21T07:51:25;18.90;99.90
24011;DHT22;12217;50.792;4.372;2022-07-21T07:53:50;18.90;99.90
24011;DHT22;12217;50.792;4.372;2022-07-21T07:56:16;18.80;99.90
24011;DHT22;12217;50.792;4.372;2022-07-21T07:58:42;18.90;99.90
24011;DHT22;12217;50.792;4.372;2022-07-21T08:01:08;18.90;99.90
24011;DHT22;12217;50.792;4.372;2022-07-21T08:03:35;19.00;99.90
24011;DHT22;12217;50.792;4.372;2022-07-21T08:06:01;19.10;99.90
24011;DHT22;12217;50.792;4.372;2022-07-21T08:08:32;19.20;99.90
24011;DHT22;12217;50.792;4.372;2022-07-21T08:10:57;19.20;99.90
24011;DHT22;12217;50.792;4.372;2022-07-21T08:13:23;19.20;99.90
24011;DHT22;12217;50.792;4.372;2022-07-21T08:15:50;19.30;99.90
24011;DHT22;12217;50.792;4.372;2022-07-21T08:18:16;19.20;99.90
24011;DHT22;12217;50.792;4.372;2022-07-21T08:20:46;19.30;99.90
24011;DHT22;12217;50.792;4.372;2022-07-21T08:23:12;19.20;99.90
24011;DHT22;12217;50.792;4.372;2022-07-21T08:25:38;19.10;99.90
24011;DHT22;12217;50.792;4.372;2022-07-21T08:28:05;19.20;99.90
24011;DHT22;12217;50.792;4.372;2022-07-21T08:30:30;19.20;99.90
24011;DHT22;12217;50.792;4.372;2022-07-21T08:32:57;19.20;99.90
24011;DHT22;12217;50.792;4.372;2022-07-21T08:35:23;19.20;99.90
24011;DHT22;12217;50.792;4.372;2022-07-21T08:37:57;19.10;99.90
24011;DHT22;12217;50.792;4.372;2022-07-21T08:40:25;19.20;99.90
24011;DHT22;12217;50.792;4.372;2022-07-21T08:42:52;19.20;99.90
24011;DHT22;12217;50.792;4.372;2022-07-21T08:45:19;19.40;99.90
24011;DHT22;12217;50.792;4.372;2022-07-21T08:47:45;19.10;99.90
24011;DHT22;12217;50.792;4.372;2022-07-21T08:50:11;19.10;99.90
24011;DHT22;12217;50.792;4.372;2022-07-21T08:52:36;19.20;99.90
24011;DHT22;12217;50.792;4.372;2022-07-21T08:55:02;19.10;99.90
24011;DHT22;12217;50.792;4.372;2022-07-21T08:57:28;19.20;99.90
24011;DHT22;12217;50.792;4.372;2022-07-21T08:59:54;19.40;99.90
24011;DHT22;12217;50.792;4.372;2022-07-21T09:02:31;19.50;99.90
24011;DHT22;12217;50.792;4.372;2022-07-21T09:04:57;19.50;99.90
24011;DHT22;12217;50.792;4.372;2022-07-21T09:07:23;19.30;99.90
24011;DHT22;12217;50.792;4.372;2022-07-21T09:10:00;19.20;99.90
24011;DHT22;12217;50.792;4.372;2022-07-21T09:12:27;19.40;99.90
24011;DHT22;12217;50.792;4.372;2022-07-21T09:15:12;19.30;99.90
24011;DHT22;12217;50.792;4.372;2022-07-21T09:17:38;19.40;99.90
24011;DHT22;12217;50.792;4.372;2022-07-21T09:20:04;19.60;99.90
24011;DHT22;12217;50.792;4.372;2022-07-21T09:23:10;19.60;99.90
24011;DHT22;12217;50.792;4.372;2022-07-21T09:28:17;19.50;99.90
24011;DHT22;12217;50.792;4.372;2022-07-21T09:30:53;19.60;99.90
24011;DHT22;12217;50.792;4.372;2022-07-21T09:33:35;19.70;99.90
24011;DHT22;12217;50.792;4.372;2022-07-21T09:38:28;19.90;99.90
24011;DHT22;12217;50.792;4.372;2022-07-21T09:40:53;20.00;99.90
24011;DHT22;12217;50.792;4.372;2022-07-21T09:43:53;20.10;99.90
24011;DHT22;12217;50.792;4.372;2022-07-21T09:46:29;20.10;99.90
24011;DHT22;12217;50.792;4.372;2022-07-21T09:48:57;20.10;99.90
24011;DHT22;12217;50.792;4.372;2022-07-21T09:56:29;20.00;99.90
24011;DHT22;12217;50.792;4.372;2022-07-21T09:58:57;20.00;99.90
24011;DHT22;12217;50.792;4.372;2022-07-21T10:01:27;20.00;99.90
24011;DHT22;12217;50.792;4.372;2022-07-21T10:03:54;20.00;99.90
24011;DHT22;12217;50.792;4.372;2022-07-21T10:06:24;20.00;99.90
24011;DHT22;12217;50.792;4.372;2022-07-21T10:08:50;20.10;99.90
24011;DHT22;12217;50.792;4.372;2022-07-21T10:11:16;20.00;99.90
24011;DHT22;12217;50.792;4.372;2022-07-21T10:13:43;20.00;99.90
24011;DHT22;12217;50.792;4.372;2022-07-21T10:16:10;20.00;99.90
24011;DHT22;12217;50.792;4.372;2022-07-21T10:18:45;19.80;99.90
24011;DHT22;12217;50.792;4.372;2022-07-21T10:21:30;19.80;99.90
24011;DHT22;12217;50.792;4.372;2022-07-21T10:23:57;19.90;99.90
24011;DHT22;12217;50.792;4.372;2022-07-21T10:26:23;19.80;99.90
24011;DHT22;12217;50.792;4.372;2022-07-21T10:28:49;19.70;99.90
24011;DHT22;12217;50.792;4.372;2022-07-21T10:31:19;19.70;99.90
24011;DHT22;12217;50.792;4.372;2022-07-21T10:47:05;19.90;99.90
24011;DHT22;12217;50.792;4.372;2022-07-21T10:57:44;20.10;99.90
24011;DHT22;12217;50.792;4.372;2022-07-21T11:02:56;20.00;99.90
24011;DHT22;12217;50.792;4.372;2022-07-21T11:05:23;20.20;99.90
24011;DHT22;12217;50.792;4.372;2022-07-21T11:08:12;19.90;99.90
24011;DHT22;12217;50.792;4.372;2022-07-21T11:10:44;19.90;99.90
24011;DHT22;12217;50.792;4.372;2022-07-21T11:13:10;19.70;99.90
24011;DHT22;12217;50.792;4.372;2022-07-21T11:15:57;19.70;99.90
24011;DHT22;12217;50.792;4.372;2022-07-21T11:18:28;19.80;99.90
24011;DHT22;12217;50.792;4.372;2022-07-21T11:21:09;19.80;99.90
24011;DHT22;12217;50.792;4.372;2022-07-21T11:23:55;19.80;99.90
24011;DHT22;12217;50.792;4.372;2022-07-21T11:26:25;19.90;99.90
24011;DHT22;12217;50.792;4.372;2022-07-21T11:29:04;19.90;99.90
24011;DHT22;12217;50.792;4.372;2022-07-21T11:31:30;19.90;99.90
24011;DHT22;12217;50.792;4.372;2022-07-21T11:33:56;20.10;99.90
24011;DHT22;12217;50.792;4.372;2022-07-21T11:36:28;19.90;99.90
24011;DHT22;12217;50.792;4.372;2022-07-21T11:39:08;19.90;99.90
24011;DHT22;12217;50.792;4.372;2022-07-21T11:41:36;19.90;99.90
24011;DHT22;12217;50.792;4.372;2022-07-21T11:44:04;19.90;99.90
24011;DHT22;12217;50.792;4.372;2022-07-21T11:46:48;20.10;99.90
24011;DHT22;12217;50.792;4.372;2022-07-21T11:49:14;20.00;99.90
24011;DHT22;12217;50.792;4.372;2022-07-21T11:51:46;19.90;99.90
24011;DHT22;12217;50.792;4.372;2022-07-21T11:56:53;19.70;99.90
24011;DHT22;12217;50.792;4.372;2022-07-21T11:59:19;19.90;99.90
24011;DHT22;12217;50.792;4.372;2022-07-21T12:01:54;19.80;99.90
24011;DHT22;12217;50.792;4.372;2022-07-21T12:06:52;20.00;99.90
24011;DHT22;12217;50.792;4.372;2022-07-21T12:09:18;20.10;99.90
24011;DHT22;12217;50.792;4.372;2022-07-21T12:11:44;20.10;99.90
24011;DHT22;12217;50.792;4.372;2022-07-21T12:14:09;20.10;99.90
24011;DHT22;12217;50.792;4.372;2022-07-21T12:16:48;20.20;99.90
24011;DHT22;12217;50.792;4.372;2022-07-21T12:19:16;20.10;99.90
24011;DHT22;12217;50.792;4.372;2022-07-21T12:21:51;20.20;99.90
24011;DHT22;12217;50.792;4.372;2022-07-21T12:24:20;20.30;99.90
24011;DHT22;12217;50.792;4.372;2022-07-21T12:26:47;20.40;99.90
24011;DHT22;12217;50.792;4.372;2022-07-21T12:29:29;20.50;99.90
24011;DHT22;12217;50.792;4.372;2022-07-21T12:31:55;20.40;99.90
24011;DHT22;12217;50.792;4.372;2022-07-21T12:34:21;20.40;99.90
24011;DHT22;12217;50.792;4.372;2022-07-21T12:36:48;20.50;99.90
24011;DHT22;12217;50.792;4.372;2022-07-21T12:39:24;20.50;99.90
24011;DHT22;12217;50.792;4.372;2022-07-21T12:42:11;20.40;99.90
24011;DHT22;12217;50.792;4.372;2022-07-21T12:44:51;20.40;99.90
24011;DHT22;12217;50.792;4.372;2022-07-21T12:47:20;20.60;99.90
24011;DHT22;12217;50.792;4.372;2022-07-21T12:49:56;20.70;99.90
24011;DHT22;12217;50.792;4.372;2022-07-21T12:52:23;21.00;99.90
24011;DHT22;12217;50.792;4.372;2022-07-21T12:54:49;21.00;99.90
24011;DHT22;12217;50.792;4.372;2022-07-21T12:57:15;21.00;99.90
24011;DHT22;12217;50.792;4.372;2022-07-21T12:59:40;21.10;99.90
24011;DHT22;12217;50.792;4.372;2022-07-21T13:02:06;21.20;99.90
24011;DHT22;12217;50.792;4.372;2022-07-21T13:04:32;21.10;99.90
24011;DHT22;12217;50.792;4.372;2022-07-21T13:06:57;21.10;99.90
24011;DHT22;12217;50.792;4.372;2022-07-21T13:09:23;21.10;99.90
24011;DHT22;12217;50.792;4.372;2022-07-21T13:11:48;21.00;99.90
24011;DHT22;12217;50.792;4.372;2022-07-21T13:14:14;20.80;99.90
24011;DHT22;12217;50.792;4.372;2022-07-21T13:16:40;20.80;99.90
24011;DHT22;12217;50.792;4.372;2022-07-21T13:19:05;20.80;99.90
24011;DHT22;12217;50.792;4.372;2022-07-21T13:21:31;21.00;99.90
24011;DHT22;12217;50.792;4.372;2022-07-21T13:23:57;21.20;99.90
24011;DHT22;12217;50.792;4.372;2022-07-21T13:26:22;21.40;99.90
24011;DHT22;12217;50.792;4.372;2022-07-21T13:28:49;21.20;99.90
24011;DHT22;12217;50.792;4.372;2022-07-21T13:31:14;21.00;99.90
24011;DHT22;12217;50.792;4.372;2022-07-21T13:33:40;21.00;99.90
24011;DHT22;12217;50.792;4.372;2022-07-21T13:36:07;21.20;99.90
24011;DHT22;12217;50.792;4.372;2022-07-21T13:38:33;21.40;99.90
24011;DHT22;12217;50.792;4.372;2022-07-21T13:40:59;21.50;99.90
24011;DHT22;12217;50.792;4.372;2022-07-21T13:43:24;21.40;99.90
24011;DHT22;12217;50.792;4.372;2022-07-21T13:45:50;21.60;99.90
24011;DHT22;12217;50.792;4.372;2022-07-21T13:48:16;21.80;99.90
24011;DHT22;12217;50.792;4.372;2022-07-21T13:50:41;21.80;99.90
24011;DHT22;12217;50.792;4.372;2022-07-21T13:53:08;21.70;99.90
24011;DHT22;12217;50.792;4.372;2022-07-21T13:55:34;21.50;99.90
24011;DHT22;12217;50.792;4.372;2022-07-21T13:58:00;21.30;99.90
24011;DHT22;12217;50.792;4.372;2022-07-21T14:00:25;21.40;99.90
24011;DHT22;12217;50.792;4.372;2022-07-21T14:02:51;21.50;99.90
24011;DHT22;12217;50.792;4.372;2022-07-21T14:05:17;21.50;99.90
24011;DHT22;12217;50.792;4.372;2022-07-21T14:07:44;21.70;99.90
24011;DHT22;12217;50.792;4.372;2022-07-21T14:10:10;21.80;99.90
24011;DHT22;12217;50.792;4.372;2022-07-21T14:12:35;22.00;99.90
24011;DHT22;12217;50.792;4.372;2022-07-21T14:15:01;22.30;99.90
24011;DHT22;12217;50.792;4.372;2022-07-21T14:17:27;22.30;99.90
24011;DHT22;12217;50.792;4.372;2022-07-21T14:19:53;22.10;99.90
24011;DHT22;12217;50.792;4.372;2022-07-21T14:22:18;22.10;99.90
24011;DHT22;12217;50.792;4.372;2022-07-21T14:24:47;22.10;99.90
24011;DHT22;12217;50.792;4.372;2022-07-21T14:27:31;22.00;99.90
24011;DHT22;12217;50.792;4.372;2022-07-21T14:29:57;21.70;99.90
24011;DHT22;12217;50.792;4.372;2022-07-21T14:32:24;21.60;99.90
24011;DHT22;12217;50.792;4.372;2022-07-21T14:34:53;21.60;99.90
24011;DHT22;12217;50.792;4.372;2022-07-21T14:37:20;21.60;99.90
24011;DHT22;12217;50.792;4.372;2022-07-21T14:39:47;21.60;99.90
24011;DHT22;12217;50.792;4.372;2022-07-21T14:42:13;21.70;99.90
24011;DHT22;12217;50.792;4.372;2022-07-21T14:44:39;21.70;99.90
24011;DHT22;12217;50.792;4.372;2022-07-21T14:47:05;21.90;99.90
24011;DHT22;12217;50.792;4.372;2022-07-21T14:49:32;21.90;99.90
24011;DHT22;12217;50.792;4.372;2022-07-21T14:51:57;21.90;99.90
24011;DHT22;12217;50.792;4.372;2022-07-21T14:54:23;21.70;99.90
24011;DHT22;12217;50.792;4.372;2022-07-21T14:56:49;21.80;99.90
24011;DHT22;12217;50.792;4.372;2022-07-21T14:59:14;21.80;99.90
24011;DHT22;12217;50.792;4.372;2022-07-21T15:01:40;21.90;99.90
24011;DHT22;12217;50.792;4.372;2022-07-21T15:04:05;22.10;99.90
24011;DHT22;12217;50.792;4.372;2022-07-21T15:06:32;22.30;99.90
24011;DHT22;12217;50.792;4.372;2022-07-21T15:08:58;22.40;99.90
24011;DHT22;12217;50.792;4.372;2022-07-21T15:11:24;22.40;99.90
24011;DHT22;12217;50.792;4.372;2022-07-21T15:13:50;22.30;99.90
24011;DHT22;12217;50.792;4.372;2022-07-21T15:16:16;22.40;99.90
24011;DHT22;12217;50.792;4.372;2022-07-21T15:18:42;22.40;99.90
24011;DHT22;12217;50.792;4.372;2022-07-21T15:21:08;22.60;99.90
24011;DHT22;12217;50.792;4.372;2022-07-21T15:23:33;22.60;99.90
24011;DHT22;12217;50.792;4.372;2022-07-21T15:25:59;22.60;99.90
24011;DHT22;12217;50.792;4.372;2022-07-21T15:28:25;22.50;99.90
24011;DHT22;12217;50.792;4.372;2022-07-21T15:30:50;22.50;99.90
24011;DHT22;12217;50.792;4.372;2022-07-21T15:33:16;22.50;99.90
24011;DHT22;12217;50.792;4.372;2022-07-21T15:35:41;22.50;99.90
24011;DHT22;12217;50.792;4.372;2022-07-21T15:38:07;22.40;99.90
24011;DHT22;12217;50.792;4.372;2022-07-21T15:40:32;22.30;99.90
24011;DHT22;12217;50.792;4.372;2022-07-21T15:42:58;22.20;99.90
24011;DHT22;12217;50.792;4.372;2022-07-21T15:45:24;21.90;99.90
24011;DHT22;12217;50.792;4.372;2022-07-21T15:47:49;21.90;99.90
24011;DHT22;12217;50.792;4.372;2022-07-21T15:50:15;21.90;99.90
24011;DHT22;12217;50.792;4.372;2022-07-21T15:52:41;21.90;99.90
24011;DHT22;12217;50.792;4.372;2022-07-21T15:55:08;22.10;99.90
24011;DHT22;12217;50.792;4.372;2022-07-21T15:57:34;21.90;99.90
24011;DHT22;12217;50.792;4.372;2022-07-21T16:00:09;21.60;99.90
24011;DHT22;12217;50.792;4.372;2022-07-21T16:02:35;21.70;99.90
24011;DHT22;12217;50.792;4.372;2022-07-21T16:05:02;21.90;99.90
24011;DHT22;12217;50.792;4.372;2022-07-21T16:07:28;21.90;99.90
24011;DHT22;12217;50.792;4.372;2022-07-21T16:09:54;21.90;99.90